createdAt,value
2018-07-03T00:00:29.846Z,37.90
2018-07-03T00:02:56.977Z,37.50
2018-07-03T00:05:24.130Z,37.40
2018-07-03T00:07:51.279Z,37.60
2018-07-03T00:10:18.407Z,37.50
2018-07-03T00:12:45.753Z,37.60
2018-07-03T00:15:13.013Z,37.90
2018-07-03T00:17:40.195Z,37.70
2018-07-03T00:20:07.863Z,37.50
2018-07-03T00:22:34.977Z,38.20
2018-07-03T00:25:02.103Z,38.90
2018-07-03T00:27:29.241Z,39.30
2018-07-03T00:32:23.543Z,39.50
2018-07-03T00:34:50.775Z,38.30
2018-07-03T00:37:17.927Z,38.80
2018-07-03T00:39:45.103Z,39.30
2018-07-03T00:42:12.363Z,39.60
2018-07-03T00:44:39.505Z,38.60
2018-07-03T00:47:06.630Z,38.50
2018-07-03T00:49:33.768Z,38.60
2018-07-03T00:52:00.892Z,38.10
2018-07-03T00:54:28.000Z,38.20
2018-07-03T00:56:55.110Z,38.50
2018-07-03T00:59:22.248Z,38.10
2018-07-03T01:01:49.371Z,38.30
2018-07-03T01:04:16.686Z,38.40
2018-07-03T01:06:43.942Z,38.50
2018-07-03T01:09:11.159Z,39.30
2018-07-03T01:11:39.099Z,40.30
2018-07-03T01:14:06.259Z,40.40
2018-07-03T01:16:33.373Z,40.60
2018-07-03T01:19:00.552Z,40.90
2018-07-03T01:21:27.727Z,41.50
2018-07-03T01:23:54.861Z,41.60
2018-07-03T01:26:22.131Z,42.30
2018-07-03T01:28:49.235Z,41.00
2018-07-03T01:31:16.731Z,41.30
2018-07-03T01:33:43.907Z,42.00
2018-07-03T01:36:11.406Z,41.60
2018-07-03T01:38:38.566Z,41.10
2018-07-03T01:41:05.744Z,40.70
2018-07-03T01:43:32.883Z,41.50
2018-07-03T01:46:00.029Z,42.00
2018-07-03T01:48:27.171Z,42.50
2018-07-03T01:53:21.447Z,43.10
2018-07-03T01:55:48.593Z,43.60
2018-07-03T01:58:15.825Z,43.60
2018-07-03T02:00:43.145Z,42.00
2018-07-03T02:03:10.331Z,42.20
2018-07-03T02:05:37.562Z,41.60
2018-07-03T02:08:04.692Z,42.10
2018-07-03T02:10:31.811Z,42.60
2018-07-03T02:12:58.966Z,42.70
2018-07-03T02:15:26.067Z,42.60
2018-07-03T02:17:53.206Z,42.80
2018-07-03T02:20:20.351Z,43.70
2018-07-03T02:22:47.467Z,42.90
2018-07-03T02:25:14.655Z,43.30
2018-07-03T02:27:41.825Z,43.60
2018-07-03T02:30:08.935Z,43.50
2018-07-03T02:32:36.095Z,43.00
2018-07-03T02:35:03.788Z,43.50
2018-07-03T02:37:30.954Z,43.90
2018-07-03T02:39:58.055Z,44.10
2018-07-03T02:42:25.213Z,44.10
2018-07-03T02:44:52.349Z,43.40
2018-07-03T02:47:19.471Z,43.40
2018-07-03T02:49:46.923Z,43.70
2018-07-03T02:52:14.207Z,43.10
2018-07-03T02:54:41.428Z,43.50
2018-07-03T02:57:08.541Z,43.50
2018-07-03T02:59:35.771Z,43.50
2018-07-03T03:02:02.896Z,43.10
2018-07-03T03:04:30.011Z,43.40
2018-07-03T03:06:57.176Z,43.50
2018-07-03T03:09:24.327Z,43.50
2018-07-03T03:11:51.580Z,43.70
2018-07-03T03:14:18.699Z,44.30
2018-07-03T03:16:45.826Z,44.60
2018-07-03T03:19:12.966Z,44.70
2018-07-03T03:21:40.083Z,44.90
2018-07-03T03:24:07.236Z,44.90
2018-07-03T03:26:34.384Z,44.70
2018-07-03T03:29:01.598Z,44.50
2018-07-03T03:31:28.895Z,44.30
2018-07-03T03:33:56.018Z,44.50
2018-07-03T03:36:23.135Z,45.00
2018-07-03T03:38:50.346Z,45.40
2018-07-03T03:41:17.492Z,45.80
2018-07-03T03:43:44.614Z,45.90
2018-07-03T03:46:11.782Z,46.40
2018-07-03T03:48:38.938Z,46.30
2018-07-03T03:51:06.088Z,46.20
2018-07-03T03:53:33.284Z,46.20
2018-07-03T03:56:00.654Z,46.20
2018-07-03T03:58:27.882Z,46.30
2018-07-03T04:00:55.079Z,46.40
2018-07-03T04:03:22.215Z,46.80
2018-07-03T04:05:49.335Z,46.70
2018-07-03T04:08:16.456Z,47.20
2018-07-03T04:10:43.567Z,47.00
2018-07-03T04:13:10.719Z,46.80
2018-07-03T04:18:05.114Z,45.90
2018-07-03T04:20:32.364Z,46.10
2018-07-03T04:22:59.523Z,46.30
2018-07-03T04:25:26.674Z,46.40
2018-07-03T04:27:53.842Z,46.50
2018-07-03T04:30:20.967Z,46.40
2018-07-03T04:32:48.088Z,46.20
2018-07-03T04:35:15.195Z,46.50
2018-07-03T04:37:42.357Z,46.40
2018-07-03T04:42:36.653Z,46.00
2018-07-03T04:45:04.016Z,46.40
2018-07-03T04:47:31.227Z,47.00
2018-07-03T04:49:58.491Z,46.90
2018-07-03T04:52:25.626Z,47.50
2018-07-03T04:54:52.738Z,47.40
2018-07-03T04:57:19.846Z,47.20
2018-07-03T04:59:46.967Z,46.30
2018-07-03T05:02:14.337Z,45.40
2018-07-03T05:04:41.443Z,41.70
2018-07-03T05:07:08.550Z,36.40
2018-07-03T05:09:42.599Z,34.30
2018-07-03T05:12:09.759Z,32.60
2018-07-03T05:14:36.882Z,31.20
2018-07-03T05:17:04.175Z,29.60
2018-07-03T05:19:31.360Z,29.20
2018-07-03T05:21:58.968Z,28.90
2018-07-03T05:24:26.106Z,28.00
2018-07-03T05:26:54.259Z,28.00
2018-07-03T05:29:21.394Z,27.40
2018-07-03T05:31:48.689Z,26.50
2018-07-03T05:34:15.830Z,25.80
2018-07-03T05:36:43.026Z,24.80
2018-07-03T05:39:11.511Z,24.70
2018-07-03T05:41:38.883Z,24.20
2018-07-03T05:44:06.063Z,23.90
2018-07-03T05:46:33.246Z,22.50
2018-07-03T05:49:00.622Z,23.30
2018-07-03T05:53:55.008Z,21.90
2018-07-03T05:56:22.181Z,22.30
2018-07-03T05:58:49.265Z,21.70
2018-07-03T06:01:16.410Z,20.80
2018-07-03T06:03:43.721Z,20.50
2018-07-03T06:06:10.715Z,20.70
2018-07-03T06:08:37.835Z,21.20
2018-07-03T06:11:05.802Z,20.60
2018-07-03T06:13:32.978Z,21.10
2018-07-03T06:16:00.415Z,20.00
2018-07-03T06:18:27.712Z,19.40
2018-07-03T06:20:55.040Z,20.60
2018-07-03T06:23:22.171Z,21.10
2018-07-03T06:25:49.293Z,20.30
2018-07-03T06:28:16.414Z,20.00
2018-07-03T06:30:43.551Z,19.40
2018-07-03T06:33:10.688Z,18.60
2018-07-03T06:35:37.818Z,19.40
2018-07-03T06:38:05.020Z,19.10
2018-07-03T06:40:32.220Z,19.00
2018-07-03T06:42:59.450Z,18.80
2018-07-03T06:45:26.573Z,19.10
2018-07-03T06:47:54.242Z,18.30
2018-07-03T06:50:21.401Z,18.80
2018-07-03T06:52:48.639Z,18.30
2018-07-03T07:00:09.984Z,18.10
2018-07-03T07:02:37.151Z,17.80
2018-07-03T07:05:04.581Z,17.40
2018-07-03T07:07:31.731Z,17.50
2018-07-03T07:09:58.965Z,17.30
2018-07-03T07:12:26.111Z,17.70
2018-07-03T07:14:53.255Z,18.00
2018-07-03T07:17:20.423Z,17.70
2018-07-03T07:19:47.584Z,17.70
2018-07-03T07:22:14.762Z,17.60
2018-07-03T07:24:41.900Z,17.10
2018-07-03T07:27:09.307Z,17.60
2018-07-03T07:29:36.488Z,17.20
2018-07-03T07:32:03.763Z,17.40
2018-07-03T07:34:31.159Z,18.00
2018-07-03T07:36:58.927Z,17.70
2018-07-03T07:39:26.024Z,17.70
2018-07-03T07:41:53.193Z,18.60
2018-07-03T07:44:20.322Z,17.70
2018-07-03T07:46:47.475Z,17.40
2018-07-03T07:49:14.617Z,16.90
2018-07-03T07:51:41.742Z,17.80
2018-07-03T07:54:08.966Z,18.00
2018-07-03T07:56:36.151Z,17.90
2018-07-03T07:59:03.531Z,18.40
2018-07-03T08:01:30.781Z,17.20
2018-07-03T08:03:58.012Z,16.80
2018-07-03T08:06:25.259Z,16.90
2018-07-03T08:08:52.568Z,17.50
2018-07-03T08:11:19.691Z,16.80
2018-07-03T08:13:46.828Z,17.00
2018-07-03T08:16:13.943Z,17.10
2018-07-03T08:18:47.843Z,18.00
2018-07-03T08:21:15.002Z,17.00
2018-07-03T08:23:42.130Z,16.60
2018-07-03T08:26:09.266Z,16.60
2018-07-03T08:28:36.659Z,16.80
2018-07-03T08:31:04.138Z,17.80
2018-07-03T08:33:31.666Z,17.80
2018-07-03T08:35:58.866Z,17.30
2018-07-03T08:38:26.004Z,16.50
2018-07-03T08:40:53.143Z,16.70
2018-07-03T08:43:20.258Z,16.90
2018-07-03T08:45:47.363Z,17.30
2018-07-03T08:48:14.563Z,17.60
2018-07-03T08:50:41.699Z,17.90
2018-07-03T08:53:08.852Z,18.30
2018-07-03T08:55:36.194Z,18.10
2018-07-03T08:58:03.613Z,17.90
2018-07-03T09:00:30.947Z,18.10
2018-07-03T09:02:58.407Z,18.20
2018-07-03T09:05:25.562Z,18.80
2018-07-03T09:07:52.675Z,17.50
2018-07-03T09:10:19.851Z,18.80
2018-07-03T09:12:46.974Z,18.40
2018-07-03T09:15:14.086Z,18.30
2018-07-03T09:17:41.274Z,17.90
2018-07-03T09:20:08.425Z,18.40
2018-07-03T09:22:35.571Z,17.90
2018-07-03T09:25:02.857Z,17.90
2018-07-03T09:27:30.115Z,18.40
2018-07-03T09:29:57.319Z,19.00
2018-07-03T09:32:24.471Z,19.00
2018-07-03T09:34:51.603Z,20.40
2018-07-03T09:37:19.301Z,19.60
2018-07-03T09:39:46.480Z,20.10
2018-07-03T09:42:13.627Z,21.20
2018-07-03T09:44:40.756Z,21.20
2018-07-03T09:47:08.103Z,22.10
2018-07-03T09:49:35.251Z,23.20
2018-07-03T09:52:02.448Z,24.50
2018-07-03T09:54:29.690Z,25.30
2018-07-03T09:56:56.882Z,26.00
2018-07-03T09:59:24.021Z,25.80
2018-07-03T10:01:51.171Z,25.90
2018-07-03T10:04:18.287Z,26.00
2018-07-03T10:06:45.433Z,26.20
2018-07-03T10:09:12.704Z,25.90
2018-07-03T10:11:40.656Z,26.40
2018-07-03T10:14:08.400Z,26.50
2018-07-03T10:16:35.567Z,26.70
2018-07-03T10:19:02.918Z,26.60
2018-07-03T10:21:30.345Z,26.60
2018-07-03T10:23:57.493Z,26.80
2018-07-03T10:26:24.655Z,26.70
2018-07-03T10:28:52.166Z,27.40
2018-07-03T10:31:19.349Z,27.10
2018-07-03T10:33:46.469Z,27.20
2018-07-03T10:36:13.607Z,27.10
2018-07-03T10:38:40.740Z,27.20
2018-07-03T10:43:35.226Z,26.80
2018-07-03T10:46:02.643Z,26.90
2018-07-03T10:48:29.874Z,27.10
2018-07-03T10:53:24.219Z,27.40
2018-07-03T10:55:51.398Z,27.70
2018-07-03T10:58:18.536Z,27.10
2018-07-03T11:00:45.673Z,27.50
2018-07-03T11:03:12.866Z,27.00
2018-07-03T11:05:39.995Z,27.60
2018-07-03T11:08:07.102Z,27.50
2018-07-03T11:10:34.275Z,27.30
2018-07-03T11:13:01.484Z,27.50
2018-07-03T11:15:28.659Z,27.30
2018-07-03T11:17:55.792Z,27.30
2018-07-03T11:20:22.908Z,27.00
2018-07-03T11:22:50.066Z,27.30
2018-07-03T11:25:17.214Z,27.30
2018-07-03T11:27:44.374Z,26.70
2018-07-03T11:30:11.508Z,25.90
2018-07-03T11:32:38.659Z,26.10
2018-07-03T11:35:06.051Z,26.60
2018-07-03T11:37:33.288Z,27.00
2018-07-03T11:40:01.905Z,26.70
2018-07-03T11:42:29.260Z,26.20
2018-07-03T11:44:56.424Z,26.10
2018-07-03T11:47:23.817Z,25.90
2018-07-03T11:49:50.952Z,25.90
2018-07-03T11:52:18.079Z,26.00
2018-07-03T11:54:45.234Z,26.10
2018-07-03T11:57:12.386Z,26.00
2018-07-03T11:59:39.539Z,25.40
2018-07-03T12:02:06.763Z,25.20
2018-07-03T12:04:33.955Z,25.70
2018-07-03T12:07:01.190Z,25.40
2018-07-03T12:09:28.388Z,25.50
2018-07-03T12:11:55.504Z,25.70
2018-07-03T12:14:22.675Z,25.00
2018-07-03T12:19:16.991Z,25.30
2018-07-03T12:21:44.163Z,25.60
2018-07-03T12:24:11.387Z,25.70
2018-07-03T12:26:38.578Z,25.60
2018-07-03T12:29:05.970Z,24.60
2018-07-03T12:31:33.140Z,25.50
2018-07-03T12:34:00.343Z,25.70
2018-07-03T12:36:27.549Z,26.00
2018-07-03T12:38:54.699Z,25.40
2018-07-03T12:41:21.831Z,25.60
2018-07-03T12:43:48.947Z,25.70
2018-07-03T12:46:16.119Z,24.80
2018-07-03T12:48:43.230Z,25.10
2018-07-03T12:51:10.446Z,25.00
2018-07-03T12:53:37.605Z,24.50
2018-07-03T12:56:04.913Z,24.10
2018-07-03T12:58:32.162Z,24.60
2018-07-03T13:00:59.341Z,24.80
2018-07-03T13:03:26.530Z,25.70
2018-07-03T13:08:20.890Z,25.30
2018-07-03T13:10:48.017Z,25.60
2018-07-03T13:13:15.285Z,25.90
2018-07-03T13:15:42.473Z,26.30
2018-07-03T13:18:15.345Z,26.50
2018-07-03T13:20:42.489Z,25.80
2018-07-03T13:23:09.971Z,25.90
2018-07-03T13:25:37.411Z,25.50
2018-07-03T13:28:04.635Z,25.50
2018-07-03T13:30:31.846Z,26.30
2018-07-03T13:32:59.113Z,26.00
2018-07-03T13:35:26.251Z,26.10
2018-07-03T13:37:53.627Z,26.00
2018-07-03T13:40:20.865Z,25.80
2018-07-03T13:42:47.990Z,26.40
2018-07-03T13:45:15.143Z,25.80
2018-07-03T13:47:42.327Z,26.40
2018-07-03T13:50:09.546Z,26.40
2018-07-03T13:52:36.700Z,25.90
2018-07-03T13:55:04.241Z,25.70
2018-07-03T13:57:31.661Z,24.90
2018-07-03T13:59:58.958Z,25.10
2018-07-03T14:02:26.152Z,25.00
2018-07-03T14:04:53.327Z,25.20
2018-07-03T14:07:20.486Z,25.20
2018-07-03T14:09:47.646Z,24.50
2018-07-03T14:12:14.766Z,25.60
2018-07-03T14:14:41.947Z,24.70
2018-07-03T14:17:09.125Z,25.10
2018-07-03T14:19:36.290Z,24.80
2018-07-03T14:26:57.901Z,24.60
2018-07-03T14:29:25.036Z,25.00
2018-07-03T14:31:52.162Z,24.70
2018-07-03T14:34:19.288Z,24.80
2018-07-03T14:36:46.460Z,24.50
2018-07-03T14:39:13.831Z,24.40
2018-07-03T14:41:41.520Z,24.80
2018-07-03T14:44:08.880Z,24.70
2018-07-03T14:46:36.258Z,25.20
2018-07-03T14:49:03.812Z,25.30
2018-07-03T14:51:31.006Z,25.30
2018-07-03T14:53:58.836Z,25.60
2018-07-03T14:56:26.013Z,25.90
2018-07-03T14:58:53.204Z,26.10
2018-07-03T15:01:20.409Z,25.70
2018-07-03T15:06:15.707Z,26.20
2018-07-03T15:08:42.825Z,25.80
2018-07-03T15:11:09.997Z,25.90
2018-07-03T15:13:37.125Z,25.80
2018-07-03T15:16:04.505Z,25.40
2018-07-03T15:18:37.410Z,25.40
2018-07-03T15:21:04.664Z,25.80
2018-07-03T15:23:31.971Z,25.20
2018-07-03T15:25:59.145Z,25.20
2018-07-03T15:28:26.280Z,25.20
2018-07-03T15:33:20.563Z,25.50
2018-07-03T15:35:47.675Z,25.60
2018-07-03T15:38:14.807Z,25.30
2018-07-03T15:40:41.953Z,25.30
2018-07-03T15:43:09.073Z,25.60
2018-07-03T15:45:36.246Z,25.30
2018-07-03T15:48:03.451Z,25.50
2018-07-03T15:50:30.643Z,25.10
2018-07-03T15:52:57.800Z,25.30
2018-07-03T15:55:25.064Z,25.40
2018-07-03T15:57:52.960Z,25.40
2018-07-03T16:00:20.581Z,26.00
2018-07-03T16:02:59.455Z,25.80
2018-07-03T16:05:38.225Z,26.10
2018-07-03T16:09:14.839Z,26.30
2018-07-03T16:11:42.041Z,25.90
2018-07-03T16:14:10.138Z,25.80
2018-07-03T16:16:37.360Z,26.60
2018-07-03T16:19:10.555Z,26.00
2018-07-03T16:21:37.747Z,29.00
2018-07-03T16:24:04.993Z,26.90
2018-07-03T16:26:32.166Z,27.20
2018-07-03T16:28:59.441Z,27.60
2018-07-03T16:31:26.599Z,28.40
2018-07-03T16:33:54.779Z,27.10
2018-07-03T16:36:21.902Z,26.70
2018-07-03T16:38:49.173Z,27.20
2018-07-03T16:41:16.287Z,28.60
2018-07-03T16:43:43.430Z,28.00
2018-07-03T16:46:10.602Z,28.00
2018-07-03T16:48:38.482Z,27.90
2018-07-03T16:51:05.691Z,28.30
2018-07-03T16:53:32.923Z,28.70
2018-07-03T16:56:00.212Z,30.00
2018-07-03T16:58:27.386Z,28.80
2018-07-03T17:00:54.559Z,29.00
2018-07-03T17:03:21.830Z,29.10
2018-07-03T17:05:48.973Z,28.30
2018-07-03T17:08:16.087Z,29.10
2018-07-03T17:10:43.247Z,27.80
2018-07-03T17:13:10.397Z,28.60
2018-07-03T17:15:37.568Z,29.30
2018-07-03T17:18:04.773Z,29.00
2018-07-03T17:20:31.958Z,29.10
2018-07-03T17:25:26.271Z,28.80
2018-07-03T17:27:53.447Z,29.40
2018-07-03T17:30:20.582Z,28.80
2018-07-03T17:32:47.699Z,28.10
2018-07-03T17:35:14.862Z,28.00
2018-07-03T17:37:41.991Z,28.00
2018-07-03T17:40:20.679Z,28.50
2018-07-03T17:44:07.707Z,28.40
2018-07-03T17:46:35.003Z,28.60
2018-07-03T17:49:02.189Z,27.80
2018-07-03T17:51:29.620Z,28.20
2018-07-03T17:53:56.750Z,27.60
2018-07-03T17:56:23.902Z,27.80
2018-07-03T17:58:51.038Z,27.40
2018-07-03T18:01:18.192Z,28.10
2018-07-03T18:03:45.379Z,28.40
2018-07-03T18:06:12.531Z,28.20
2018-07-03T18:08:39.690Z,28.70
2018-07-03T18:11:06.830Z,28.70
2018-07-03T18:13:33.994Z,29.60
2018-07-03T18:16:01.174Z,30.80
2018-07-03T18:18:28.538Z,31.40
2018-07-03T18:20:55.680Z,31.30
2018-07-03T18:23:22.790Z,32.10
2018-07-03T18:25:49.909Z,33.50
2018-07-03T18:28:17.079Z,35.50
2018-07-03T18:30:44.248Z,36.10
2018-07-03T18:33:11.358Z,36.40
2018-07-03T18:35:38.574Z,36.80
2018-07-03T18:38:05.851Z,37.20
2018-07-03T18:40:33.010Z,38.90
2018-07-03T18:43:00.225Z,39.80
2018-07-03T18:45:27.421Z,41.40
2018-07-03T18:47:54.563Z,39.10
2018-07-03T18:50:21.714Z,38.50
2018-07-03T18:52:48.875Z,36.80
2018-07-03T18:55:16.026Z,35.40
2018-07-03T18:57:43.155Z,38.00
2018-07-03T19:00:10.348Z,38.10
2018-07-03T19:02:37.522Z,38.90
2018-07-03T19:05:04.744Z,38.30
2018-07-03T19:07:31.951Z,38.60
2018-07-03T19:10:00.196Z,39.00
2018-07-03T19:12:27.412Z,40.20
2018-07-03T19:14:54.579Z,40.80
2018-07-03T19:17:21.727Z,41.30
2018-07-03T19:19:48.894Z,41.70
2018-07-03T19:22:16.027Z,41.90
2018-07-03T19:27:10.407Z,41.90
2018-07-03T19:29:37.562Z,41.30
2018-07-03T19:32:04.794Z,41.00
2018-07-03T19:34:31.934Z,42.30
2018-07-03T19:36:59.355Z,42.30
2018-07-03T19:39:26.507Z,42.30
2018-07-03T19:41:53.706Z,43.10
2018-07-03T19:44:20.836Z,43.60
2018-07-03T19:46:48.031Z,43.80
2018-07-03T19:49:15.237Z,43.50
2018-07-03T19:51:42.380Z,43.10
2018-07-03T19:54:09.542Z,43.10
2018-07-03T19:56:36.780Z,43.20
2018-07-03T19:59:04.271Z,43.10
2018-07-03T20:01:31.576Z,42.60
2018-07-03T20:03:58.811Z,42.20
2018-07-03T20:06:25.970Z,42.40
2018-07-03T20:08:53.138Z,43.20
2018-07-03T20:11:20.286Z,43.10
2018-07-03T20:13:47.472Z,42.60
2018-07-03T20:16:14.630Z,42.50
2018-07-03T20:18:41.748Z,41.70
2018-07-03T20:21:08.907Z,41.20
2018-07-03T20:23:36.082Z,41.50
2018-07-03T20:26:03.295Z,41.90
2018-07-03T20:28:30.448Z,42.20
2018-07-03T20:30:57.642Z,42.60
2018-07-03T20:33:24.918Z,42.70
2018-07-03T20:35:52.035Z,42.30
2018-07-03T20:38:19.408Z,41.70
2018-07-03T20:40:58.955Z,40.80
2018-07-03T20:43:27.428Z,40.80
2018-07-03T20:45:54.748Z,40.10
2018-07-03T20:48:22.283Z,40.00
2018-07-03T20:50:49.449Z,39.60
2018-07-03T20:53:16.616Z,39.30
2018-07-03T20:55:43.788Z,39.20
2018-07-03T20:58:11.041Z,39.70
2018-07-03T21:00:38.186Z,38.90
2018-07-03T21:03:05.410Z,38.90
2018-07-03T21:05:32.694Z,38.40
2018-07-03T21:07:59.881Z,38.30
2018-07-03T21:10:27.048Z,38.60
2018-07-03T21:12:54.147Z,38.80
2018-07-03T21:15:21.266Z,39.20
2018-07-03T21:17:48.414Z,39.30
2018-07-03T21:20:15.570Z,39.40
2018-07-03T21:22:42.703Z,39.70
2018-07-03T21:25:09.834Z,40.00
2018-07-03T21:27:36.956Z,40.60
2018-07-03T21:30:04.189Z,40.70
2018-07-03T21:34:58.575Z,40.40
2018-07-03T21:37:25.686Z,40.60
2018-07-03T21:39:52.783Z,40.70
2018-07-03T21:42:19.890Z,41.10
2018-07-03T21:44:46.998Z,41.00
2018-07-03T21:47:14.136Z,40.80
2018-07-03T21:49:41.262Z,40.40
2018-07-03T21:52:08.368Z,40.30
2018-07-03T21:54:35.510Z,40.40
2018-07-03T21:57:02.973Z,40.70
2018-07-03T21:59:30.152Z,40.20
2018-07-03T22:01:57.324Z,40.30
2018-07-03T22:04:24.467Z,40.30
2018-07-03T22:06:51.655Z,40.40
2018-07-03T22:09:18.965Z,40.00
2018-07-03T22:11:46.096Z,40.20
2018-07-03T22:14:13.309Z,39.70
2018-07-03T22:16:40.445Z,40.10
2018-07-03T22:19:07.591Z,40.50
2018-07-03T22:21:35.555Z,40.10
2018-07-03T22:24:02.739Z,40.00
2018-07-03T22:26:29.913Z,40.10
2018-07-03T22:28:57.027Z,40.10
2018-07-03T22:31:24.144Z,40.30
2018-07-03T22:33:51.249Z,40.20
2018-07-03T22:36:18.366Z,39.80
2018-07-03T22:38:45.590Z,39.70
2018-07-03T22:41:12.627Z,39.60
2018-07-03T22:43:39.746Z,39.50
2018-07-03T22:46:06.873Z,39.50
2018-07-03T22:48:33.995Z,39.60
2018-07-03T22:51:01.136Z,39.50
2018-07-03T22:53:28.297Z,39.40
2018-07-03T22:55:55.426Z,39.30
2018-07-03T22:58:22.593Z,39.30
2018-07-03T23:00:49.659Z,39.40
2018-07-03T23:03:16.777Z,39.40
2018-07-03T23:05:43.878Z,40.00
2018-07-03T23:08:11.007Z,40.20
2018-07-03T23:13:05.283Z,40.30
2018-07-03T23:15:32.587Z,40.60
2018-07-03T23:17:59.796Z,40.60
2018-07-03T23:20:26.906Z,40.70
2018-07-03T23:22:54.043Z,41.10
2018-07-03T23:25:21.307Z,41.90
2018-07-03T23:27:48.418Z,41.50
2018-07-03T23:30:15.566Z,42.00
2018-07-03T23:32:42.689Z,42.60
2018-07-03T23:35:09.847Z,43.00
2018-07-03T23:37:36.982Z,43.30
2018-07-03T23:40:04.149Z,43.40
2018-07-03T23:42:31.408Z,43.50
2018-07-03T23:44:58.599Z,42.90
2018-07-03T23:47:37.403Z,43.00
2018-07-03T23:50:16.159Z,42.70
2018-07-03T23:55:27.997Z,42.60
2018-07-03T23:58:06.716Z,42.60
